Time;durP1;ratioP1;P1;durP2;ratioP2;P2;SDS_P1;SDS_P2;PMS_P1;PMS_P2;Temp;Humidity;BMP_temperature;BMP_pressure;BME280_temperature;BME280_humidity;BME280_pressure;Samples;Min_cycle;Max_cycle;Signal;HPM_P1;HPM_P2
2023/10/27 00:00:31;;;;;;;1.70;1.55;;;;;;;12.33;nan;-24161.31;4992283;28;20165;-71
2023/10/27 00:02:56;;;;;;;1.10;1.10;;;;;;;12.01;nan;-24152.44;4992036;28;20183;-70
2023/10/27 00:05:22;;;;;;;1.02;1.02;;;;;;;11.93;nan;-24150.19;4992143;28;20595;-71
2023/10/27 00:07:47;;;;;;;1.65;1.55;;;;;;;11.79;nan;-24146.38;4992485;28;20283;-70
2023/10/27 00:10:13;;;;;;;1.35;1.25;;;;;;;11.66;nan;-24142.56;4991099;28;20272;-70
2023/10/27 00:12:39;;;;;;;1.42;1.35;;;;;;;11.58;nan;-24140.31;4992250;28;20180;-71
2023/10/27 00:15:05;;;;;;;1.35;1.25;;;;;;;11.78;nan;-24146.09;4992384;28;20260;-71
2023/10/27 00:17:31;;;;;;;1.40;1.30;;;;;;;11.80;nan;-24146.66;4993171;28;20245;-70
2023/10/27 00:19:57;;;;;;;1.88;1.45;;;;;;;11.56;nan;-24139.91;4995566;28;20232;-71
2023/10/27 00:22:25;;;;;;;2.90;1.55;;;;;;;11.60;nan;-24140.88;4995517;28;20169;-71
2023/10/27 00:24:50;;;;;;;3.88;1.38;;;;;;;11.77;nan;-24145.69;4995686;28;20161;-71
2023/10/27 00:27:16;;;;;;;1.70;1.60;;;;;;;11.58;nan;-24140.31;4995476;28;20728;-72
2023/10/27 00:29:41;;;;;;;1.75;1.65;;;;;;;11.46;nan;-24137.22;4995797;28;20532;-69
2023/10/27 00:32:07;;;;;;;1.58;1.48;;;;;;;11.45;nan;-24136.94;4994286;28;20631;-69
2023/10/27 00:34:32;;;;;;;4.70;2.40;;;;;;;11.42;nan;-24136.09;4994846;28;20169;-70
2023/10/27 00:36:58;;;;;;;1.83;1.65;;;;;;;11.68;nan;-24143.28;4994643;28;20165;-71
2023/10/27 00:39:23;;;;;;;1.00;1.00;;;;;;;11.66;nan;-24142.56;4994909;28;20272;-69
2023/10/27 00:41:48;;;;;;;1.55;1.27;;;;;;;11.45;nan;-24136.81;4993655;28;20184;-70
2023/10/27 00:44:14;;;;;;;1.10;1.10;;;;;;;11.59;nan;-24140.59;4994744;28;20548;-72
2023/10/27 00:46:39;;;;;;;2.75;1.90;;;;;;;11.67;nan;-24142.84;4994379;28;20181;-69
2023/10/27 00:49:05;;;;;;;1.05;1.05;;;;;;;11.81;nan;-24146.94;4994602;28;20702;-69
2023/10/27 00:51:31;;;;;;;1.65;1.55;;;;;;;11.79;nan;-24146.38;4994653;28;20184;-71
2023/10/27 00:53:58;;;;;;;1.30;1.20;;;;;;;11.76;nan;-24145.41;4994413;28;20612;-70
2023/10/27 00:56:24;;;;;;;1.80;1.63;;;;;;;11.73;nan;-24144.56;4994245;28;20533;-70
2023/10/27 00:58:50;;;;;;;1.65;1.55;;;;;;;11.55;nan;-24139.47;5009495;28;20667;-69
2023/10/27 01:01:17;;;;;;;1.67;1.58;;;;;;;11.53;nan;-24139.19;4994443;28;20181;-70
2023/10/27 01:03:43;;;;;;;1.65;1.55;;;;;;;11.57;nan;-24140.19;4994506;28;20200;-69
2023/10/27 01:06:09;;;;;;;1.00;1.00;;;;;;;11.76;nan;-24145.53;4994595;28;20260;-70
2023/10/27 01:08:34;;;;;;;1.42;1.33;;;;;;;11.75;nan;-24145.13;4995146;28;20295;-70
2023/10/27 01:11:00;;;;;;;2.80;1.90;;;;;;;11.63;nan;-24141.72;4994915;28;20260;-69
2023/10/27 01:13:26;;;;;;;1.20;1.10;;;;;;;11.68;nan;-24143.13;4994891;28;20631;-71
2023/10/27 01:15:51;;;;;;;1.67;1.55;;;;;;;11.61;nan;-24141.16;4994716;28;20519;-68
2023/10/27 01:18:16;;;;;;;1.50;1.40;;;;;;;11.38;nan;-24134.81;4994579;28;20208;-71
2023/10/27 01:20:42;;;;;;;1.45;1.35;;;;;;;11.55;nan;-24139.47;4994950;28;20231;-70
2023/10/27 01:23:07;;;;;;;1.08;0.98;;;;;;;11.61;nan;-24141.16;5000557;28;20574;-68
2023/10/27 01:25:33;;;;;;;2.10;1.60;;;;;;;11.46;nan;-24137.09;5008007;28;20219;-68
2023/10/27 01:27:58;;;;;;;1.10;1.10;;;;;;;11.48;nan;-24137.78;4993389;28;20193;-71
2023/10/27 01:30:24;;;;;;;1.20;1.20;;;;;;;11.47;nan;-24137.34;4993101;28;20168;-69
2023/10/27 01:32:50;;;;;;;1.95;1.50;;;;;;;11.45;nan;-24136.81;4994781;28;20227;-70
2023/10/27 01:35:16;;;;;;;0.93;0.90;;;;;;;11.28;nan;-24132.00;4994231;28;20263;-70
2023/10/27 01:37:41;;;;;;;1.25;1.15;;;;;;;11.26;nan;-24131.59;4994464;28;20260;-69
2023/10/27 01:40:07;;;;;;;1.08;1.08;;;;;;;11.41;nan;-24135.66;4994249;28;20188;-70
2023/10/27 01:42:34;;;;;;;1.23;1.13;;;;;;;11.43;nan;-24136.22;4994373;28;20193;-70
2023/10/27 01:45:03;;;;;;;1.80;1.70;;;;;;;11.51;nan;-24138.63;4994287;28;20177;-69
2023/10/27 01:47:29;;;;;;;0.93;0.93;;;;;;;11.29;nan;-24132.28;4994075;28;20688;-72
2023/10/27 01:49:55;;;;;;;0.95;0.95;;;;;;;11.22;nan;-24130.31;4994041;28;20180;-69
2023/10/27 01:52:20;;;;;;;2.08;1.58;;;;;;;11.32;nan;-24133.28;4993942;28;20172;-69
2023/10/27 01:54:46;;;;;;;2.25;1.58;;;;;;;11.16;nan;-24128.63;4993941;28;20165;-72
2023/10/27 01:57:11;;;;;;;1.83;1.73;;;;;;;11.34;nan;-24133.84;4994069;28;20180;-71
2023/10/27 01:59:37;;;;;;;1.20;1.20;;;;;;;11.34;nan;-24133.84;4994143;28;20172;-71
2023/10/27 02:02:02;;;;;;;1.38;1.20;;;;;;;11.22;nan;-24130.31;4993628;28;20245;-68
2023/10/27 02:04:28;;;;;;;1.40;1.30;;;;;;;11.38;nan;-24134.81;4994169;28;20679;-70
2023/10/27 02:06:55;;;;;;;2.55;1.50;;;;;;;11.57;nan;-24140.03;4993959;28;20179;-71
2023/10/27 02:09:21;;;;;;;1.58;1.38;;;;;;;11.53;nan;-24139.19;4993457;28;20203;-69
2023/10/27 02:11:46;;;;;;;2.67;1.80;;;;;;;11.58;nan;-24140.31;4993607;28;20181;-69
2023/10/27 02:14:12;;;;;;;1.85;1.75;;;;;;;11.17;nan;-24128.91;4993741;28;20706;-70
2023/10/27 02:16:37;;;;;;;1.30;1.20;;;;;;;11.53;nan;-24139.19;4993706;28;20173;-69
2023/10/27 02:19:03;;;;;;;1.77;1.40;;;;;;;11.61;nan;-24141.31;4993505;28;20225;-71
2023/10/27 02:21:29;;;;;;;6.78;1.65;;;;;;;11.40;nan;-24135.53;4993154;28;20223;-71
2023/10/27 02:23:54;;;;;;;2.42;2.03;;;;;;;11.61;nan;-24141.31;4993143;28;20168;-71
2023/10/27 02:26:19;;;;;;;1.17;1.17;;;;;;;11.59;nan;-24140.59;4993243;28;20169;-71
2023/10/27 02:28:45;;;;;;;1.20;1.13;;;;;;;11.46;nan;-24137.09;4992726;28;20200;-70
2023/10/27 02:31:10;;;;;;;1.35;1.25;;;;;;;11.35;nan;-24134.13;4993229;28;20568;-71
2023/10/27 02:33:36;;;;;;;1.17;1.17;;;;;;;11.62;nan;-24141.44;4993368;28;20526;-70
2023/10/27 02:36:02;;;;;;;1.40;1.30;;;;;;;11.41;nan;-24135.81;4993329;28;20611;-70
2023/10/27 02:38:27;;;;;;;1.48;1.38;;;;;;;11.56;nan;-24139.91;4992929;28;20195;-71
2023/10/27 02:40:53;;;;;;;2.35;1.20;;;;;;;11.46;nan;-24137.09;4993556;28;20621;-71
2023/10/27 02:43:19;;;;;;;1.42;1.27;;;;;;;11.53;nan;-24139.19;4993445;28;20180;-69
2023/10/27 02:45:44;;;;;;;1.85;1.75;;;;;;;11.48;nan;-24137.63;4992988;28;20173;-70
2023/10/27 02:48:10;;;;;;;1.15;1.15;;;;;;;11.75;nan;-24145.13;4993088;28;20212;-72
2023/10/27 02:50:35;;;;;;;1.58;1.48;;;;;;;11.65;nan;-24142.44;4992491;28;20165;-69
2023/10/27 02:53:01;;;;;;;6.72;2.17;;;;;;;11.58;nan;-24140.47;4992836;28;20211;-71
2023/10/27 02:55:26;;;;;;;1.50;1.40;;;;;;;11.48;nan;-24137.63;4992988;28;20247;-69
2023/10/27 02:57:52;;;;;;;1.13;1.13;;;;;;;11.72;nan;-24144.41;4991914;28;20270;-71
2023/10/27 03:00:19;;;;;;;1.20;1.10;;;;;;;11.72;nan;-24144.41;4992898;28;20181;-70
2023/10/27 03:02:44;;;;;;;0.98;0.98;;;;;;;11.52;nan;-24138.78;4993378;28;20226;-68
2023/10/27 03:05:10;;;;;;;1.48;1.38;;;;;;;11.64;nan;-24142.16;4992778;28;20169;-71
2023/10/27 03:07:35;;;;;;;1.98;1.88;;;;;;;11.56;nan;-24139.91;4992859;28;20242;-68
2023/10/27 03:10:01;;;;;;;1.17;1.17;;;;;;;11.61;nan;-24141.31;4992267;28;20183;-71
2023/10/27 03:12:26;;;;;;;1.90;1.70;;;;;;;11.53;nan;-24139.19;4993057;28;20223;-71
2023/10/27 03:14:52;;;;;;;1.08;1.05;;;;;;;11.81;nan;-24146.81;4992231;28;20183;-72
2023/10/27 03:17:17;;;;;;;1.42;1.30;;;;;;;11.97;nan;-24151.16;4992531;28;20279;-68
2023/10/27 03:19:43;;;;;;;1.17;1.10;;;;;;;11.68;nan;-24143.13;4990860;28;20251;-70
2023/10/27 03:22:08;;;;;;;1.50;1.40;;;;;;;11.90;nan;-24149.34;4991139;28;20424;-71
2023/10/27 03:24:33;;;;;;;2.22;1.27;;;;;;;11.70;nan;-24143.69;4990202;28;20188;-69
2023/10/27 03:26:59;;;;;;;1.50;1.40;;;;;;;11.17;nan;-24129.03;4992605;28;20702;-70
2023/10/27 03:29:25;;;;;;;3.70;1.60;;;;;;;11.92;nan;-24149.91;4991828;28;20225;-69
2023/10/27 03:31:51;;;;;;;4.85;1.40;;;;;;;11.97;nan;-24151.31;4992510;28;20172;-70
2023/10/27 03:34:16;;;;;;;1.10;1.10;;;;;;;11.78;nan;-24146.09;4992617;28;20700;-68
2023/10/27 03:36:41;;;;;;;1.92;1.48;;;;;;;11.80;nan;-24146.66;4992753;28;20176;-71
2023/10/27 03:39:07;;;;;;;1.63;1.52;;;;;;;11.94;nan;-24148.59;4991369;28;20188;-70
2023/10/27 03:41:32;;;;;;;1.20;1.15;;;;;;;11.79;nan;-24146.25;4992509;28;20180;-70
2023/10/27 03:43:58;;;;;;;1.65;1.55;;;;;;;11.69;nan;-24143.41;4992142;28;20173;-71
2023/10/27 03:46:23;;;;;;;1.85;1.65;;;;;;;11.75;nan;-24145.13;4992703;28;20200;-70
2023/10/27 03:48:49;;;;;;;1.77;1.42;;;;;;;11.94;nan;-24150.59;4992530;28;20262;-70
2023/10/27 03:51:15;;;;;;;2.63;1.95;;;;;;;11.72;nan;-24144.25;4992316;28;20177;-70
2023/10/27 03:53:41;;;;;;;1.73;1.63;;;;;;;11.84;nan;-24147.78;4994864;28;20169;-70
2023/10/27 03:56:06;;;;;;;1.25;1.17;;;;;;;11.72;nan;-24144.25;4996294;28;20312;-71
2023/10/27 03:58:32;;;;;;;1.70;1.60;;;;;;;11.72;nan;-24144.41;4995718;28;20180;-72
2023/10/27 04:00:57;;;;;;;1.08;1.08;;;;;;;11.77;nan;-24145.69;4995922;28;20181;-72
2023/10/27 04:03:23;;;;;;;1.60;1.23;;;;;;;11.91;nan;-24149.75;4995909;28;20171;-68
2023/10/27 04:05:48;;;;;;;1.55;1.35;;;;;;;11.75;nan;-24145.13;4994286;28;20260;-71
2023/10/27 04:08:14;;;;;;;2.05;1.75;;;;;;;11.98;nan;-24151.59;4995016;28;20198;-70
2023/10/27 04:10:39;;;;;;;1.33;1.27;;;;;;;11.75;nan;-24145.25;4995285;28;20572;-70
2023/10/27 04:13:07;;;;;;;3.55;1.23;;;;;;;11.76;nan;-24145.53;4994898;28;20223;-69
2023/10/27 04:15:33;;;;;;;1.40;1.30;;;;;;;11.92;nan;-24149.91;4993937;28;20620;-69
2023/10/27 04:18:00;;;;;;;9.80;3.35;;;;;;;11.95;nan;-24150.88;4994917;28;20247;-71
2023/10/27 04:20:25;;;;;;;1.48;1.38;;;;;;;11.80;nan;-24146.66;4994588;28;20315;-70
2023/10/27 04:22:51;;;;;;;2.35;2.15;;;;;;;11.92;nan;-24149.91;4993449;28;20368;-68
2023/10/27 04:25:16;;;;;;;1.45;1.35;;;;;;;11.91;nan;-24149.63;4995333;28;20179;-68
2023/10/27 04:27:42;;;;;;;1.60;1.50;;;;;;;11.95;nan;-24150.88;4994696;28;20200;-70
2023/10/27 04:30:08;;;;;;;1.00;1.00;;;;;;;11.92;nan;-24149.91;4994511;28;20173;-69
2023/10/27 04:32:38;;;;;;;1.98;1.42;;;;;;;11.84;nan;-24147.66;4994710;28;20181;-70
2023/10/27 04:35:04;;;;;;;2.20;2.10;;;;;;;11.78;nan;-24146.09;4994615;28;20203;-69
2023/10/27 04:37:32;;;;;;;3.30;1.63;;;;;;;11.75;nan;-24145.13;4993665;28;20257;-69
2023/10/27 04:39:58;;;;;;;1.10;1.10;;;;;;;11.88;nan;-24148.91;5008152;28;20551;-70
2023/10/27 04:42:23;;;;;;;1.52;1.42;;;;;;;11.81;nan;-24146.81;4993074;28;20251;-68
2023/10/27 04:44:49;;;;;;;1.60;1.42;;;;;;;11.85;nan;-24148.06;5004543;28;20203;-69
2023/10/27 04:47:14;;;;;;;1.98;1.73;;;;;;;11.87;nan;-24148.50;4999118;28;20636;-71
2023/10/27 04:49:40;;;;;;;1.30;1.25;;;;;;;11.86;nan;-24148.22;4992804;28;20781;-71
2023/10/27 04:52:08;;;;;;;1.70;1.60;;;;;;;11.85;nan;-24147.94;4993057;28;20173;-70
2023/10/27 04:54:36;;;;;;;1.50;1.40;;;;;;;11.88;nan;-24148.78;4994828;28;20165;-70
2023/10/27 04:57:05;;;;;;;1.75;1.58;;;;;;;11.68;nan;-24143.13;4995116;28;20169;-72
2023/10/27 04:59:32;;;;;;;1.20;1.17;;;;;;;11.59;nan;-24140.59;4994962;28;20194;-70
2023/10/27 05:01:58;;;;;;;1.38;1.27;;;;;;;11.71;nan;-24143.97;4993668;28;20223;-71
2023/10/27 05:04:23;;;;;;;1.55;1.45;;;;;;;11.84;nan;-24147.66;4995144;28;20216;-71
2023/10/27 05:06:49;;;;;;;2.45;1.90;;;;;;;11.71;nan;-24143.97;4994734;28;20216;-70
2023/10/27 05:09:18;;;;;;;1.63;1.52;;;;;;;12.02;nan;-24152.56;4993037;28;20247;-71
2023/10/27 05:11:45;;;;;;;3.50;2.75;;;;;;;11.74;nan;-24144.97;4993959;28;20184;-70
2023/10/27 05:14:12;;;;;;;2.25;2.00;;;;;;;11.61;nan;-24141.16;4994055;28;20177;-71
2023/10/27 05:16:38;;;;;;;1.58;1.42;;;;;;;11.65;nan;-24142.28;4994000;28;20177;-68
2023/10/27 05:19:04;;;;;;;1.05;1.02;;;;;;;11.67;nan;-24142.84;4993446;28;20711;-70
2023/10/27 05:21:30;;;;;;;1.33;1.25;;;;;;;11.82;nan;-24147.09;4993452;28;20337;-70
2023/10/27 05:23:58;;;;;;;1.05;1.05;;;;;;;12.03;nan;-24152.84;4993263;28;20255;-71
2023/10/27 05:26:25;;;;;;;1.15;1.15;;;;;;;11.83;nan;-24147.50;4993262;28;20181;-72
2023/10/27 05:28:51;;;;;;;1.35;1.25;;;;;;;12.08;nan;-24154.25;4992226;28;20200;-70
2023/10/27 05:31:17;;;;;;;1.75;1.60;;;;;;;12.18;nan;-24157.22;4992418;28;20239;-70
2023/10/27 05:33:42;;;;;;;1.70;1.50;;;;;;;12.08;nan;-24154.41;4992830;28;20271;-71
2023/10/27 05:36:08;;;;;;;1.70;1.25;;;;;;;12.13;nan;-24155.81;4992728;28;20257;-70
2023/10/27 05:38:33;;;;;;;1.42;1.33;;;;;;;12.07;nan;-24154.00;4992823;28;20165;-71
2023/10/27 05:40:59;;;;;;;1.65;1.55;;;;;;;12.77;nan;-24173.53;4992852;28;20181;-70
2023/10/27 05:43:26;;;;;;;1.40;1.30;;;;;;;12.88;nan;-24174.75;4993850;28;20642;-72
2023/10/27 05:45:52;;;;;;;1.75;1.60;;;;;;;13.02;nan;-23858.81;4994110;28;20177;-71
2023/10/27 05:48:17;;;;;;;2.15;1.73;;;;;;;13.32;nan;-22906.50;4993992;28;20273;-70
2023/10/27 05:50:42;;;;;;;1.40;1.30;;;;;;;13.45;nan;-22589.66;4993808;28;20215;-72
2023/10/27 05:53:08;;;;;;;1.90;1.45;;;;;;;13.80;nan;-21316.59;4992934;28;20321;-71
2023/10/27 05:55:33;;;;;;;2.38;2.00;;;;;;;13.96;nan;-20678.88;4993275;28;20171;-72
2023/10/27 05:57:59;;;;;;;2.88;2.05;;;;;;;14.15;nan;-20041.53;4992770;28;20656;-72
2023/10/27 06:00:24;;;;;;;1.42;1.35;;;;;;;14.19;nan;-19400.44;4991068;28;20168;-73
2023/10/27 06:02:52;;;;;;;1.42;1.33;;;;;;;14.28;nan;-18439.03;4992959;28;20186;-71
2023/10/27 06:05:19;;;;;;;1.73;1.63;;;;;;;14.45;nan;-17799.88;4992863;28;20176;-73
2023/10/27 06:07:45;;;;;;;1.30;1.20;;;;;;;14.41;nan;-17477.84;4992358;28;20208;-71
2023/10/27 06:10:10;;;;;;;1.95;1.85;;;;;;;14.49;nan;-17479.22;4992373;28;20223;-72
2023/10/27 06:12:37;;;;;;;9.80;1.67;;;;;;;14.58;nan;-17159.38;4992611;28;20177;-72
2023/10/27 06:15:02;;;;;;;2.45;2.25;;;;;;;14.65;nan;-14909.88;4992285;28;20176;-72
2023/10/27 06:17:29;;;;;;;1.10;1.10;;;;;;;14.95;nan;-12982.34;4992804;28;20175;-72
2023/10/27 06:19:55;;;;;;;8.85;2.90;;;;;;;14.78;nan;-11048.81;4992140;28;20294;-72
2023/10/27 06:22:20;;;;;;;2.65;1.98;;;;;;;14.99;nan;-10405.72;4992080;28;20177;-71
2023/10/27 06:24:46;;;;;;;1.50;1.40;;;;;;;15.04;nan;-11050.47;4992652;28;20239;-72
2023/10/27 06:27:11;;;;;;;1.75;1.65;;;;;;;15.00;nan;-10728.03;4992494;28;20161;-71
2023/10/27 06:29:37;;;;;;;2.05;1.88;;;;;;;15.27;nan;-8794.81;4992716;28;20204;-74
2023/10/27 06:32:03;;;;;;;2.35;1.98;;;;;;;15.36;nan;-7504.34;4992524;28;20259;-74
2023/10/27 06:34:28;;;;;;;1.50;1.40;;;;;;;15.52;nan;-5566.97;4992782;28;20672;-71
2023/10/27 06:36:54;;;;;;;1.63;1.52;;;;;;;15.82;nan;-3303.22;4992088;28;20181;-73
2023/10/27 06:39:19;;;;;;;2.55;2.33;;;;;;;15.96;nan;1877.09;4992486;28;20173;-72
2023/10/27 06:41:46;;;;;;;3.38;2.05;;;;;;;16.22;nan;4474.94;4992367;28;20177;-69
2023/10/27 06:44:12;;;;;;;7.38;3.72;;;;;;;16.26;nan;8370.59;4992212;28;20157;-69
2023/10/27 06:46:37;;;;;;;2.53;2.17;;;;;;;16.41;nan;11624.56;4992235;28;20398;-71
2023/10/27 06:49:03;;;;;;;1.83;1.73;;;;;;;16.46;nan;13903.28;4992082;28;20306;-70
2023/10/27 06:51:28;;;;;;;2.80;1.70;;;;;;;16.83;nan;12939.03;4992650;28;20179;-72
2023/10/27 06:53:53;;;;;;;3.40;1.48;;;;;;;16.93;nan;16199.84;4993057;28;20169;-70
2023/10/27 06:56:19;;;;;;;2.13;1.90;;;;;;;17.10;nan;16532.19;4992514;28;20185;-72
2023/10/27 06:58:44;;;;;;;2.92;2.28;;;;;;;16.82;nan;19129.53;4992854;28;20575;-70
2023/10/27 07:01:15;;;;;;;3.10;2.60;;;;;;;16.93;nan;22071.00;4992223;28;20312;-72
2023/10/27 07:03:44;;;;;;;2.55;2.10;;;;;;;16.68;nan;19449.78;4991454;28;20184;-70
2023/10/27 07:06:10;;;;;;;3.97;2.03;;;;;;;16.83;nan;19129.75;4991297;28;20590;-73
2023/10/27 07:08:38;;;;;;;3.10;2.47;;;;;;;16.84;nan;19782.72;4992410;28;20683;-73
2023/10/27 07:11:03;;;;;;;9.40;4.70;;;;;;;16.72;nan;22061.44;4992544;28;20172;-74
2023/10/27 07:13:30;;;;;;;4.13;3.47;;;;;;;16.73;nan;20430.44;4992351;28;20586;-73
2023/10/27 07:15:56;;;;;;;4.20;2.22;;;;;;;16.74;nan;19126.06;4992731;28;20169;-72
2023/10/27 07:18:22;;;;;;;3.65;2.53;;;;;;;16.57;nan;20097.09;4992428;28;20169;-74
2023/10/27 07:20:48;;;;;;;6.95;2.88;;;;;;;16.84;nan;21414.13;4993111;28;20303;-72
2023/10/27 07:23:15;;;;;;;4.00;2.38;;;;;;;16.94;nan;22071.50;4991145;28;20263;-72
2023/10/27 07:25:41;;;;;;;3.35;2.53;;;;;;;17.21;nan;22084.69;4992614;28;20632;-72
2023/10/27 07:28:07;;;;;;;6.35;2.58;;;;;;;17.48;nan;25693.81;4995982;28;20192;-71
2023/10/27 07:30:33;;;;;;;4.43;3.10;;;;;;;17.95;nan;30304.97;4996417;28;20181;-74
2023/10/27 07:32:58;;;;;;;5.68;2.80;;;;;;;18.07;nan;35891.47;4996241;28;20577;-73
2023/10/27 07:35:24;;;;;;;3.60;2.45;;;;;;;18.22;nan;36579.34;4996424;28;20196;-73
2023/10/27 07:37:49;;;;;;;3.45;2.78;;;;;;;18.26;nan;39900.34;4996015;28;20176;-71
2023/10/27 07:40:15;;;;;;;3.42;2.47;;;;;;;18.17;nan;42134.59;4996095;28;20169;-71
2023/10/27 07:42:42;;;;;;;3.78;2.38;;;;;;;18.17;nan;42752.13;4994952;28;20173;-72
2023/10/27 07:45:08;;;;;;;2.85;2.28;;;;;;;18.23;nan;44704.47;4994640;28;20204;-72
2023/10/27 07:47:34;;;;;;;5.80;2.58;;;;;;;18.49;nan;46108.97;4995038;28;20192;-72
2023/10/27 07:50:00;;;;;;;3.25;2.38;;;;;;;18.58;nan;47533.44;4995965;28;20247;-72
2023/10/27 07:52:27;;;;;;;2.75;2.15;;;;;;;18.92;nan;48121.00;4994631;28;20640;-71
2023/10/27 07:54:53;;;;;;;2.92;1.90;;;;;;;19.07;nan;50263.34;5010358;28;20481;-72
2023/10/27 07:57:18;;;;;;;2.65;2.45;;;;;;;19.03;nan;51054.56;4994775;28;20245;-73
2023/10/27 07:59:44;;;;;;;3.30;2.38;;;;;;;19.06;nan;52242.59;4995178;28;20269;-72
2023/10/27 08:02:09;;;;;;;2.92;2.15;;;;;;;19.06;nan;53590.44;5001956;28;20189;-73
2023/10/27 08:04:37;;;;;;;4.18;1.95;;;;;;;18.83;nan;52715.81;5001248;28;20173;-72
2023/10/27 08:07:03;;;;;;;3.42;2.50;;;;;;;18.73;nan;52553.63;4995760;28;20730;-71
2023/10/27 08:09:29;;;;;;;2.75;2.05;;;;;;;18.84;nan;52399.72;4995831;28;20508;-73
2023/10/27 08:11:55;;;;;;;3.42;1.90;;;;;;;18.73;nan;51519.16;4996142;28;20200;-73
2023/10/27 08:14:20;;;;;;;8.90;2.40;;;;;;;18.83;nan;51773.53;4995987;28;20201;-72
2023/10/27 08:16:46;;;;;;;3.42;2.83;;;;;;;18.64;nan;51551.75;4994702;28;20180;-72
2023/10/27 08:19:12;;;;;;;2.05;1.85;;;;;;;18.69;nan;51390.94;5010327;28;20239;-71
2023/10/27 08:21:37;;;;;;;3.80;2.70;;;;;;;18.95;nan;53711.69;4994310;28;20185;-73
2023/10/27 08:24:03;;;;;;;1.92;1.83;;;;;;;18.79;nan;51658.69;4995711;28;20177;-72
2023/10/27 08:26:28;;;;;;;3.78;2.75;;;;;;;18.75;nan;52638.22;4994087;28;20691;-72
2023/10/27 08:28:54;;;;;;;3.63;2.03;;;;;;;18.77;nan;52508.53;4994842;28;20266;-73
2023/10/27 08:31:20;;;;;;;1.60;1.40;;;;;;;18.41;nan;50044.19;4993563;28;20227;-73
2023/10/27 08:33:45;;;;;;;1.67;1.55;;;;;;;18.58;nan;50482.69;4994607;28;20208;-74
2023/10/27 08:36:11;;;;;;;1.90;1.70;;;;;;;18.87;nan;50316.69;4995298;28;20553;-73
2023/10/27 08:38:36;;;;;;;2.30;1.90;;;;;;;19.06;nan;52097.50;4992819;28;20529;-71
2023/10/27 08:41:04;;;;;;;2.80;1.75;;;;;;;19.03;nan;54016.81;4995371;28;20295;-72
2023/10/27 08:43:31;;;;;;;5.10;1.88;;;;;;;19.12;nan;55726.66;4994828;28;20183;-72
2023/10/27 08:45:57;;;;;;;2.13;1.67;;;;;;;18.92;nan;55228.34;4992593;28;20228;-72
2023/10/27 08:48:23;;;;;;;1.70;1.30;;;;;;;19.03;nan;56084.44;4994302;28;20247;-70
2023/10/27 08:50:51;;;;;;;2.17;1.98;;;;;;;18.84;nan;55222.72;4993311;28;20196;-72
2023/10/27 08:53:17;;;;;;;1.55;1.33;;;;;;;18.59;nan;54277.19;4992992;28;20247;-73
2023/10/27 08:55:43;;;;;;;1.50;1.40;;;;;;;18.92;nan;55251.63;5008102;28;20177;-71
2023/10/27 08:58:08;;;;;;;2.58;1.60;;;;;;;19.57;nan;55288.47;4989583;28;20223;-64
2023/10/27 09:00:34;;;;;;;1.80;1.70;;;;;;;19.95;nan;56821.50;4992269;28;20231;-64
2023/10/27 09:03:13;;;;;;;3.33;2.35;;;;;;;20.09;nan;57208.75;4993064;28;20188;-64
2023/10/27 09:05:39;;;;;;;2.75;1.67;;;;;;;20.15;nan;58236.06;4992410;28;20177;-64
2023/10/27 09:08:04;;;;;;;1.42;1.23;;;;;;;20.02;nan;58776.59;4994420;28;20744;-64
2023/10/27 09:10:30;;;;;;;1.50;1.40;;;;;;;20.45;nan;59097.66;4992809;28;20185;-64
2023/10/27 09:12:59;;;;;;;1.45;1.35;;;;;;;21.06;nan;59527.16;4993896;28;20173;-64
2023/10/27 09:15:25;;;;;;;1.55;1.35;;;;;;;21.20;nan;60175.72;4993992;28;20200;-65
2023/10/27 09:17:54;;;;;;;1.52;1.05;;;;;;;21.47;nan;60400.56;4993857;28;20569;-65
2023/10/27 09:20:21;;;;;;;1.52;1.17;;;;;;;21.65;nan;60669.59;4994149;28;20256;-64
2023/10/27 09:23:01;;;;;;;2.65;1.80;;;;;;;21.51;nan;60979.97;4992318;28;20189;-65
2023/10/27 09:25:31;;;;;;;2.13;1.30;;;;;;;21.64;nan;61071.44;4987308;28;20184;-65
2023/10/27 09:27:58;;;;;;;3.70;2.47;;;;;;;21.93;nan;61189.88;4987972;28;20212;-65
2023/10/27 09:30:40;;;;;;;1.92;1.77;;;;;;;21.68;nan;61242.94;4988145;28;20177;-65
2023/10/27 09:33:17;;;;;;;2.90;1.83;;;;;;;21.95;nan;61325.38;4987470;28;20229;-65
2023/10/27 09:35:43;;;;;;;1.30;1.20;;;;;;;22.24;nan;61393.91;4993511;28;20192;-65
2023/10/27 09:38:09;;;;;;;1.95;1.33;;;;;;;22.23;nan;61353.22;4993006;28;20185;-65
2023/10/27 09:40:39;;;;;;;3.58;1.98;;;;;;;22.22;nan;61427.56;4991970;28;20192;-64
2023/10/27 09:43:11;;;;;;;2.63;2.38;;;;;;;22.48;nan;61503.75;4994349;28;20181;-64
2023/10/27 09:45:41;;;;;;;2.03;1.50;;;;;;;22.51;nan;61512.38;4992515;28;20231;-64
2023/10/27 09:48:06;;;;;;;2.78;1.83;;;;;;;22.48;nan;61540.78;4991780;28;20211;-65
2023/10/27 09:50:32;;;;;;;2.63;2.00;;;;;;;22.05;nan;61564.50;4991729;28;20185;-64
2023/10/27 09:53:00;;;;;;;3.20;1.80;;;;;;;21.95;nan;61580.34;4993563;28;20580;-64
2023/10/27 09:55:27;;;;;;;2.00;1.40;;;;;;;22.22;nan;61547.28;4993465;28;20191;-65
2023/10/27 09:57:52;;;;;;;1.55;1.35;;;;;;;21.89;nan;61472.06;4992672;28;20195;-64
2023/10/27 10:00:25;;;;;;;1.45;1.30;;;;;;;22.09;nan;61465.50;4993022;28;20173;-65
2023/10/27 10:02:51;;;;;;;2.88;1.55;;;;;;;22.15;nan;61450.88;4992910;28;20183;-64
2023/10/27 10:05:17;;;;;;;2.20;1.48;;;;;;;22.56;nan;61538.84;4992767;28;20177;-64
2023/10/27 10:07:54;;;;;;;1.42;1.30;;;;;;;22.99;nan;61701.00;4992126;28;20200;-65
2023/10/27 10:10:35;;;;;;;3.67;1.90;;;;;;;23.17;nan;61776.13;4992554;28;20191;-65
2023/10/27 10:13:12;;;;;;;1.90;1.70;;;;;;;23.57;nan;61842.41;4990728;28;20181;-64
2023/10/27 10:15:42;;;;;;;1.42;1.10;;;;;;;23.59;nan;61982.94;4992959;28;20176;-64
2023/10/27 10:18:33;;;;;;;1.40;1.30;;;;;;;23.61;nan;62076.53;4993027;28;20534;-64
2023/10/27 10:20:59;;;;;;;1.92;1.20;;;;;;;23.50;nan;62084.88;4992312;28;20653;-64
2023/10/27 10:23:51;;;;;;;2.58;1.75;;;;;;;23.49;nan;62094.16;4992904;28;20165;-64
2023/10/27 10:26:17;;;;;;;2.47;1.65;;;;;;;23.38;nan;62110.31;4992403;28;20255;-65
2023/10/27 10:28:46;;;;;;;2.50;1.88;;;;;;;23.29;nan;62111.06;4992038;28;20347;-65
2023/10/27 10:31:13;;;;;;;1.15;1.02;;;;;;;23.61;nan;62102.63;4992389;28;20714;-65
2023/10/27 10:33:40;;;;;;;1.42;1.30;;;;;;;23.54;nan;62152.03;4991922;28;20189;-65
2023/10/27 10:36:12;;;;;;;1.88;1.40;;;;;;;23.81;nan;62184.88;4992454;28;20664;-65
2023/10/27 10:38:39;;;;;;;1.48;1.35;;;;;;;23.69;nan;62181.59;4991224;28;20181;-64
2023/10/27 10:41:05;;;;;;;3.58;1.77;;;;;;;23.75;nan;62131.03;4992380;28;20570;-65
2023/10/27 10:43:34;;;;;;;1.42;1.33;;;;;;;23.85;nan;62220.75;4992166;28;20172;-65
2023/10/27 10:46:01;;;;;;;1.38;1.27;;;;;;;24.01;nan;62369.53;4990871;28;20550;-65
2023/10/27 10:48:42;;;;;;;2.00;1.60;;;;;;;24.29;nan;62301.72;4992039;28;20675;-65
2023/10/27 10:51:18;;;;;;;2.40;2.03;;;;;;;24.42;nan;62277.38;4989553;28;20199;-65
2023/10/27 10:53:44;;;;;;;2.15;1.60;;;;;;;24.47;nan;62470.63;4992063;28;20727;-65
2023/10/27 10:56:09;;;;;;;1.90;1.27;;;;;;;24.37;nan;62300.41;4991695;28;20263;-65
2023/10/27 10:58:37;;;;;;;1.98;1.38;;;;;;;24.53;nan;62279.50;4992408;28;20207;-65
2023/10/27 11:01:03;;;;;;;1.20;1.10;;;;;;;24.39;nan;62294.28;4992521;28;20192;-65
2023/10/27 11:03:34;;;;;;;1.40;1.30;;;;;;;24.34;nan;62404.09;4991606;28;20180;-65
2023/10/27 11:06:06;;;;;;;2.08;1.30;;;;;;;24.39;nan;62304.75;4990153;28;20275;-65
2023/10/27 11:08:35;;;;;;;1.35;1.20;;;;;;;24.44;nan;62292.16;4991553;28;20193;-65
2023/10/27 11:11:01;;;;;;;2.00;1.45;;;;;;;24.60;nan;62328.72;4992339;28;20274;-65
2023/10/27 11:13:27;;;;;;;1.55;1.45;;;;;;;24.31;nan;62340.00;4991806;28;20173;-65
2023/10/27 11:15:53;;;;;;;1.75;1.58;;;;;;;24.27;nan;62283.22;4991923;28;20191;-65
2023/10/27 11:18:18;;;;;;;1.40;1.30;;;;;;;24.23;nan;62304.75;4992215;28;20176;-65
2023/10/27 11:20:45;;;;;;;1.83;1.35;;;;;;;24.09;nan;62287.28;4990993;28;20602;-66
2023/10/27 11:23:12;;;;;;;1.77;1.50;;;;;;;24.08;nan;62262.66;4992297;28;20239;-65
2023/10/27 11:25:42;;;;;;;1.20;1.10;;;;;;;24.20;nan;62286.81;4991950;28;20550;-63
2023/10/27 11:28:29;;;;;;;2.17;1.23;;;;;;;24.19;nan;62292.91;4990862;28;20200;-63
2023/10/27 11:31:08;;;;;;;3.40;1.42;;;;;;;24.09;nan;62310.22;4972292;28;20622;-63
2023/10/27 11:34:09;;;;;;;1.83;1.67;;;;;;;23.93;nan;62268.44;4972478;28;20681;-63
2023/10/27 11:36:40;;;;;;;1.80;1.27;;;;;;;24.03;nan;62261.59;4986044;28;20652;-63
2023/10/27 11:39:17;;;;;;;1.13;1.00;;;;;;;24.14;nan;62268.91;4991671;28;20230;-63
2023/10/27 11:41:50;;;;;;;2.97;1.65;;;;;;;24.09;nan;62325.88;4991537;28;20598;-63
2023/10/27 11:44:19;;;;;;;1.25;1.10;;;;;;;24.20;nan;62325.41;4991698;28;20175;-63